createdAt,value
2023-02-22T00:00:28.673Z,7.89
2023-02-22T00:02:54.957Z,7.86
2023-02-22T00:05:21.195Z,7.88
2023-02-22T00:07:47.420Z,7.88
2023-02-22T00:10:13.715Z,7.85
2023-02-22T00:12:40.003Z,7.85
2023-02-22T00:15:06.237Z,7.87
2023-02-22T00:17:32.484Z,7.82
2023-02-22T00:19:58.733Z,7.84
2023-02-22T00:22:24.986Z,7.72
2023-02-22T00:24:51.217Z,7.74
2023-02-22T00:27:17.469Z,7.70
2023-02-22T00:29:43.717Z,7.66
2023-02-22T00:32:10.046Z,7.68
2023-02-22T00:34:36.350Z,7.70
2023-02-22T00:37:02.639Z,7.70
2023-02-22T00:39:28.907Z,7.74
2023-02-22T00:41:55.195Z,7.71
2023-02-22T00:44:21.481Z,7.67
2023-02-22T00:46:47.764Z,7.65
2023-02-22T00:49:14.034Z,7.58
2023-02-22T00:51:40.276Z,7.54
2023-02-22T00:54:06.531Z,7.54
2023-02-22T00:56:32.797Z,7.46
2023-02-22T00:58:59.039Z,7.40
2023-02-22T01:01:25.364Z,7.40
2023-02-22T01:03:51.675Z,7.31
2023-02-22T01:06:17.975Z,7.37
2023-02-22T01:08:44.205Z,7.37
2023-02-22T01:11:10.450Z,7.39
2023-02-22T01:13:36.703Z,7.40
2023-02-22T01:16:02.965Z,7.39
2023-02-22T01:18:29.217Z,7.36
2023-02-22T01:20:55.515Z,7.35
2023-02-22T01:23:21.766Z,7.45
2023-02-22T01:25:48.032Z,7.39
2023-02-22T01:28:14.336Z,7.40
2023-02-22T01:30:40.814Z,7.38
2023-02-22T01:33:07.164Z,7.29
2023-02-22T01:35:33.464Z,7.30
2023-02-22T01:37:59.744Z,7.30
2023-02-22T01:40:25.979Z,7.32
2023-02-22T01:42:52.248Z,7.32
2023-02-22T01:45:18.500Z,7.34
2023-02-22T01:47:44.753Z,7.41
2023-02-22T01:50:11.002Z,7.37
2023-02-22T01:52:37.254Z,7.35
2023-02-22T01:55:03.494Z,7.42
2023-02-22T01:57:29.752Z,7.39
2023-02-22T01:59:56.032Z,7.41
2023-02-22T02:02:22.288Z,7.46
2023-02-22T02:04:48.626Z,7.44
2023-02-22T02:07:14.894Z,7.35
2023-02-22T02:09:41.139Z,7.11
2023-02-22T02:12:07.382Z,7.00
2023-02-22T02:14:33.621Z,6.89
2023-02-22T02:16:59.899Z,6.66
2023-02-22T02:19:26.234Z,6.80
2023-02-22T02:21:52.533Z,6.87
2023-02-22T02:24:18.792Z,6.93
2023-02-22T02:26:45.059Z,6.95
2023-02-22T02:29:11.309Z,6.97
2023-02-22T02:31:37.612Z,7.01
2023-02-22T02:34:03.917Z,6.88
2023-02-22T02:36:30.178Z,6.89
2023-02-22T02:38:56.439Z,6.77
2023-02-22T02:41:22.713Z,6.71
2023-02-22T02:43:48.965Z,6.57
2023-02-22T02:46:15.243Z,6.60
2023-02-22T02:48:41.502Z,6.65
2023-02-22T02:51:07.769Z,6.69
2023-02-22T02:53:34.007Z,6.75
2023-02-22T02:56:00.271Z,6.74
2023-02-22T02:58:26.525Z,6.77
2023-02-22T03:00:52.760Z,6.71
2023-02-22T03:03:19.045Z,6.76
2023-02-22T03:05:45.365Z,6.78
2023-02-22T03:08:11.599Z,6.78
2023-02-22T03:10:37.939Z,6.76
2023-02-22T03:13:04.261Z,6.81
2023-02-22T03:15:30.520Z,6.62
2023-02-22T03:17:56.766Z,6.65
2023-02-22T03:20:23.043Z,6.72
2023-02-22T03:22:49.329Z,6.75
2023-02-22T03:25:15.576Z,6.70
2023-02-22T03:27:41.824Z,6.72
2023-02-22T03:30:08.121Z,6.79
2023-02-22T03:32:34.405Z,6.81
2023-02-22T03:35:00.689Z,6.79
2023-02-22T03:37:26.956Z,6.79
2023-02-22T03:39:53.197Z,6.83
2023-02-22T03:42:19.429Z,6.87
2023-02-22T03:44:45.662Z,6.88
2023-02-22T03:47:11.924Z,6.83
2023-02-22T03:49:38.169Z,6.81
2023-02-22T03:52:04.412Z,6.83
2023-02-22T03:54:30.662Z,6.87
2023-02-22T03:56:56.894Z,6.91
2023-02-22T03:59:23.156Z,6.93
2023-02-22T04:01:49.424Z,6.95
2023-02-22T04:04:15.721Z,6.93
2023-02-22T04:06:41.988Z,6.95
2023-02-22T04:09:08.286Z,6.96
2023-02-22T04:11:34.586Z,6.88
2023-02-22T04:14:00.837Z,6.88
2023-02-22T04:16:27.093Z,6.87
2023-02-22T04:18:53.350Z,6.75
2023-02-22T04:21:19.643Z,6.70
2023-02-22T04:23:45.917Z,6.71
2023-02-22T04:26:12.153Z,6.70
2023-02-22T04:28:38.401Z,6.45
2023-02-22T04:31:04.712Z,6.47
2023-02-22T04:33:30.983Z,6.43
2023-02-22T04:35:57.215Z,6.29
2023-02-22T04:38:23.444Z,6.15
2023-02-22T04:40:49.668Z,6.05
2023-02-22T04:43:15.899Z,6.19
2023-02-22T04:45:42.173Z,6.22
2023-02-22T04:48:08.440Z,6.10
2023-02-22T04:50:34.697Z,6.14
2023-02-22T04:53:01.002Z,6.22
2023-02-22T04:55:27.302Z,6.26
2023-02-22T04:57:53.535Z,6.16
2023-02-22T05:00:19.808Z,6.11
2023-02-22T05:02:46.113Z,6.23
2023-02-22T05:05:12.382Z,6.33
2023-02-22T05:07:38.662Z,6.44
2023-02-22T05:10:04.951Z,6.48
2023-02-22T05:12:31.187Z,6.63
2023-02-22T05:14:57.446Z,6.79
2023-02-22T05:17:23.780Z,6.75
2023-02-22T05:19:50.048Z,6.76
2023-02-22T05:22:16.608Z,6.76
2023-02-22T05:24:42.912Z,6.78
2023-02-22T05:27:09.141Z,6.79
2023-02-22T05:29:35.366Z,6.88
2023-02-22T05:32:01.682Z,6.88
2023-02-22T05:34:27.999Z,6.86
2023-02-22T05:36:54.247Z,6.80
2023-02-22T05:39:20.485Z,6.79
2023-02-22T05:41:46.732Z,6.77
2023-02-22T05:44:12.980Z,6.83
2023-02-22T05:46:39.280Z,6.81
2023-02-22T05:49:05.535Z,6.80
2023-02-22T05:51:31.784Z,6.80
2023-02-22T05:53:58.068Z,6.84
2023-02-22T05:56:24.384Z,6.81
2023-02-22T05:58:50.636Z,6.76
2023-02-22T06:01:17.220Z,6.73
2023-02-22T06:03:43.739Z,6.70
2023-02-22T06:06:10.028Z,6.69
2023-02-22T06:08:36.286Z,6.65
2023-02-22T06:11:02.561Z,6.62
2023-02-22T06:13:28.852Z,6.62
2023-02-22T06:15:55.164Z,6.62
2023-02-22T06:18:21.463Z,6.57
2023-02-22T06:20:47.795Z,6.56
2023-02-22T06:23:14.069Z,6.57
2023-02-22T06:25:40.368Z,6.57
2023-02-22T06:28:06.654Z,6.50
2023-02-22T06:30:32.928Z,6.43
2023-02-22T06:32:59.221Z,6.41
2023-02-22T06:35:25.519Z,6.36
2023-02-22T06:37:51.755Z,6.27
2023-02-22T06:40:18.016Z,6.28
2023-02-22T06:42:44.289Z,6.37
2023-02-22T06:45:10.530Z,6.39
2023-02-22T06:47:36.805Z,6.33
2023-02-22T06:50:03.134Z,6.19
2023-02-22T06:52:29.447Z,6.15
2023-02-22T06:54:55.754Z,6.09
2023-02-22T06:57:22.005Z,6.07
2023-02-22T06:59:48.279Z,6.14
2023-02-22T07:02:14.736Z,6.22
2023-02-22T07:04:43.245Z,6.32
2023-02-22T07:07:09.914Z,6.34
2023-02-22T07:09:36.184Z,6.32
2023-02-22T07:12:02.441Z,6.35
2023-02-22T07:14:28.685Z,6.34
2023-02-22T07:16:54.945Z,6.39
2023-02-22T07:19:21.252Z,6.46
2023-02-22T07:21:47.538Z,6.49
2023-02-22T07:24:13.851Z,6.52
2023-02-22T07:26:40.134Z,6.54
2023-02-22T07:29:06.450Z,6.60
2023-02-22T07:31:32.796Z,6.60
2023-02-22T07:33:59.045Z,6.69
2023-02-22T07:36:25.312Z,6.69
2023-02-22T07:38:51.609Z,6.76
2023-02-22T07:41:18.230Z,6.83
2023-02-22T07:43:44.756Z,6.86
2023-02-22T07:46:11.070Z,6.89
2023-02-22T07:48:37.391Z,6.97
2023-02-22T07:51:03.649Z,6.98
2023-02-22T07:53:29.952Z,7.17
2023-02-22T07:55:56.309Z,7.34
2023-02-22T07:58:22.559Z,7.40
2023-02-22T08:00:48.835Z,7.54
2023-02-22T08:03:15.210Z,7.80
2023-02-22T08:05:41.482Z,7.89
2023-02-22T08:08:07.764Z,8.06
2023-02-22T08:10:34.083Z,8.09
2023-02-22T08:13:00.330Z,8.09
2023-02-22T08:15:26.641Z,8.16
2023-02-22T08:17:53.350Z,8.23
2023-02-22T08:20:19.692Z,8.31
2023-02-22T08:22:45.949Z,8.29
2023-02-22T08:25:12.235Z,8.38
2023-02-22T08:27:38.592Z,8.57
2023-02-22T08:30:05.141Z,8.66
2023-02-22T08:32:31.521Z,8.68
2023-02-22T08:34:57.863Z,8.69
2023-02-22T08:37:24.168Z,8.72
2023-02-22T08:39:50.425Z,8.85
2023-02-22T08:42:16.703Z,8.98
2023-02-22T08:44:43.176Z,9.05
2023-02-22T08:47:09.432Z,9.13
2023-02-22T08:49:35.728Z,9.16
2023-02-22T08:52:01.991Z,9.20
2023-02-22T08:54:28.245Z,9.23
2023-02-22T08:56:54.528Z,9.18
2023-02-22T08:59:20.845Z,9.08
2023-02-22T09:01:47.135Z,9.14
2023-02-22T09:04:13.473Z,9.29
2023-02-22T09:06:39.823Z,9.38
2023-02-22T09:09:06.070Z,9.43
2023-02-22T09:11:32.355Z,9.50
2023-02-22T09:13:58.642Z,9.55
2023-02-22T09:16:24.927Z,9.62
2023-02-22T09:18:51.236Z,9.56
2023-02-22T09:21:17.871Z,9.71
2023-02-22T09:23:44.286Z,9.83
2023-02-22T09:26:10.522Z,9.96
2023-02-22T09:28:36.789Z,10.03
2023-02-22T09:31:19.125Z,10.16
2023-02-22T09:33:47.371Z,10.19
2023-02-22T09:36:13.815Z,10.18
2023-02-22T09:38:40.071Z,10.10
2023-02-22T09:41:06.433Z,10.10
2023-02-22T09:43:32.707Z,10.27
2023-02-22T09:45:59.094Z,10.32
2023-02-22T09:48:25.465Z,10.43
2023-02-22T09:50:51.827Z,10.44
2023-02-22T09:53:18.101Z,10.38
2023-02-22T09:55:44.374Z,10.44
2023-02-22T09:58:10.646Z,10.53
2023-02-22T10:00:36.919Z,10.62
2023-02-22T10:03:03.194Z,10.66
2023-02-22T10:05:29.449Z,10.75
2023-02-22T10:07:55.789Z,10.80
2023-02-22T10:10:22.062Z,10.59
2023-02-22T10:12:48.444Z,10.76
2023-02-22T10:15:14.741Z,10.94
2023-02-22T10:18:01.007Z,11.08
2023-02-22T10:20:27.303Z,11.10
2023-02-22T10:22:53.639Z,10.80
2023-02-22T10:25:19.915Z,10.71
2023-02-22T10:27:46.245Z,10.62
2023-02-22T10:30:23.844Z,10.47
2023-02-22T10:32:51.110Z,9.92
2023-02-22T10:35:17.446Z,10.08
2023-02-22T10:37:43.746Z,9.97
2023-02-22T10:40:10.050Z,10.00
2023-02-22T10:42:36.353Z,10.10
2023-02-22T10:45:02.603Z,10.00
2023-02-22T10:47:28.848Z,10.10
2023-02-22T10:49:55.154Z,9.87
2023-02-22T10:52:21.414Z,9.67
2023-02-22T10:54:47.705Z,9.91
2023-02-22T10:57:13.947Z,10.02
2023-02-22T10:59:40.270Z,9.83
2023-02-22T11:02:06.531Z,10.05
2023-02-22T11:04:32.814Z,9.96
2023-02-22T11:06:59.098Z,10.05
2023-02-22T11:09:25.749Z,10.17
2023-02-22T11:11:52.170Z,10.38
2023-02-22T11:14:18.406Z,10.64
2023-02-22T11:16:44.736Z,10.82
2023-02-22T11:19:11.090Z,10.74
2023-02-22T11:21:37.308Z,10.58
2023-02-22T11:24:03.576Z,10.33
2023-02-22T11:26:29.883Z,10.58
2023-02-22T11:28:56.239Z,10.46
2023-02-22T11:31:22.632Z,10.67
2023-02-22T11:33:48.898Z,10.89
2023-02-22T11:36:15.131Z,10.99
2023-02-22T11:38:41.404Z,10.89
2023-02-22T11:41:07.674Z,11.22
2023-02-22T11:43:33.962Z,11.43
2023-02-22T11:46:02.047Z,11.54
2023-02-22T11:48:28.527Z,11.76
2023-02-22T11:50:54.777Z,11.88
2023-02-22T11:53:21.174Z,11.92
2023-02-22T11:55:47.424Z,12.18
2023-02-22T11:58:13.875Z,12.42
2023-02-22T12:00:40.156Z,12.59
2023-02-22T12:03:06.398Z,12.74
2023-02-22T12:05:32.685Z,12.80
2023-02-22T12:08:01.461Z,12.81
2023-02-22T12:10:29.533Z,12.20
2023-02-22T12:12:55.791Z,12.50
2023-02-22T12:15:22.088Z,12.42
2023-02-22T12:17:59.305Z,12.20
2023-02-22T12:20:26.501Z,12.38
2023-02-22T12:22:52.818Z,12.45
2023-02-22T12:25:19.073Z,12.51
2023-02-22T12:27:45.444Z,12.16
2023-02-22T12:30:11.774Z,12.42
2023-02-22T12:32:38.159Z,12.63
2023-02-22T12:35:04.499Z,12.55
2023-02-22T12:37:30.813Z,12.26
2023-02-22T12:39:57.111Z,12.18
2023-02-22T12:42:23.362Z,12.50
2023-02-22T12:44:49.671Z,12.08
2023-02-22T12:47:15.974Z,12.40
2023-02-22T12:49:42.293Z,12.53
2023-02-22T12:52:21.000Z,12.81
2023-02-22T12:54:48.092Z,13.08
2023-02-22T12:57:14.429Z,12.93
2023-02-22T12:59:40.687Z,13.11
2023-02-22T13:02:06.978Z,12.78
2023-02-22T13:04:33.492Z,13.18
2023-02-22T13:06:59.790Z,13.48
2023-02-22T13:09:26.088Z,13.44
2023-02-22T13:11:52.423Z,13.02
2023-02-22T13:14:18.721Z,13.29
2023-02-22T13:16:44.987Z,13.07
2023-02-22T13:19:11.254Z,13.01
2023-02-22T13:21:37.518Z,13.13
2023-02-22T13:24:03.793Z,13.26
2023-02-22T13:26:30.817Z,13.04
2023-02-22T13:28:57.117Z,12.84
2023-02-22T13:31:23.495Z,12.67
2023-02-22T13:33:49.833Z,12.82
2023-02-22T13:36:16.296Z,12.72
2023-02-22T13:38:42.687Z,12.49
2023-02-22T13:41:09.004Z,12.64
2023-02-22T13:43:35.270Z,12.85
2023-02-22T13:46:01.691Z,13.02
2023-02-22T13:48:28.058Z,12.72
2023-02-22T13:50:54.362Z,12.82
2023-02-22T13:53:20.619Z,12.73
2023-02-22T13:55:46.928Z,12.70
2023-02-22T13:58:13.191Z,12.54
2023-02-22T14:00:39.490Z,12.62
2023-02-22T14:03:05.812Z,12.67
2023-02-22T14:05:32.100Z,12.75
2023-02-22T14:07:58.387Z,12.59
2023-02-22T14:10:24.723Z,12.45
2023-02-22T14:12:51.056Z,12.56
2023-02-22T14:15:32.428Z,12.38
2023-02-22T14:17:58.783Z,12.45
2023-02-22T14:20:25.015Z,12.64
2023-02-22T14:22:51.313Z,12.60
2023-02-22T14:25:27.723Z,12.82
2023-02-22T14:27:54.426Z,12.24
2023-02-22T14:30:20.684Z,12.20
2023-02-22T14:32:47.081Z,12.61
2023-02-22T14:35:25.485Z,12.69
2023-02-22T14:37:53.485Z,12.51
2023-02-22T14:40:20.071Z,12.68
2023-02-22T14:42:46.406Z,12.66
2023-02-22T14:45:12.819Z,12.42
2023-02-22T14:47:39.095Z,12.61
2023-02-22T14:50:05.376Z,12.69
2023-02-22T14:52:31.682Z,12.73
2023-02-22T14:54:57.946Z,12.09
2023-02-22T14:57:24.205Z,12.41
2023-02-22T14:59:50.514Z,12.62
2023-02-22T15:02:16.773Z,12.82
2023-02-22T15:04:43.044Z,12.87
2023-02-22T15:07:09.324Z,13.04
2023-02-22T15:09:35.580Z,13.04
2023-02-22T15:12:01.813Z,12.75
2023-02-22T15:14:28.120Z,12.78
2023-02-22T15:16:54.432Z,12.55
2023-02-22T15:19:20.694Z,12.14
2023-02-22T15:21:48.413Z,12.02
2023-02-22T15:24:14.671Z,11.31
2023-02-22T15:26:49.045Z,11.56
2023-02-22T15:29:21.789Z,11.57
2023-02-22T15:31:48.614Z,11.02
2023-02-22T15:34:14.991Z,10.97
2023-02-22T15:36:41.340Z,10.67
2023-02-22T15:39:07.608Z,10.84
2023-02-22T15:41:33.845Z,10.80
2023-02-22T15:44:03.451Z,10.82
2023-02-22T15:46:31.803Z,10.79
2023-02-22T15:48:58.072Z,10.58
2023-02-22T15:51:24.398Z,10.74
2023-02-22T15:53:50.661Z,10.83
2023-02-22T15:56:16.948Z,10.81
2023-02-22T15:58:43.285Z,10.74
2023-02-22T16:01:09.546Z,10.85
2023-02-22T16:03:35.818Z,10.93
2023-02-22T16:06:02.726Z,10.95
2023-02-22T16:08:29.009Z,10.96
2023-02-22T16:10:55.253Z,10.93
2023-02-22T16:13:30.969Z,10.69
2023-02-22T16:15:57.644Z,10.35
2023-02-22T16:18:23.924Z,10.36
2023-02-22T16:20:50.285Z,10.22
2023-02-22T16:23:16.825Z,10.11
2023-02-22T16:25:43.127Z,10.23
2023-02-22T16:28:09.382Z,10.30
2023-02-22T16:30:35.756Z,10.36
2023-02-22T16:33:02.122Z,10.44
2023-02-22T16:35:28.530Z,10.47
2023-02-22T16:37:54.940Z,10.44
2023-02-22T16:40:21.296Z,10.45
2023-02-22T16:42:47.564Z,10.31
2023-02-22T16:45:13.852Z,10.22
2023-02-22T16:47:40.175Z,10.21
2023-02-22T16:50:06.451Z,10.19
2023-02-22T16:52:32.695Z,10.18
2023-02-22T16:54:58.965Z,10.12
2023-02-22T16:57:25.223Z,10.06
2023-02-22T16:59:51.483Z,10.06
2023-02-22T17:02:17.801Z,10.04
2023-02-22T17:04:44.050Z,9.97
2023-02-22T17:07:10.364Z,9.97
2023-02-22T17:09:36.716Z,9.94
2023-02-22T17:12:02.939Z,9.92
2023-02-22T17:14:29.200Z,9.81
2023-02-22T17:16:55.449Z,9.82
2023-02-22T17:19:25.238Z,9.80
2023-02-22T17:21:51.547Z,9.79
2023-02-22T17:24:17.843Z,9.78
2023-02-22T17:26:44.163Z,9.66
2023-02-22T17:29:10.406Z,9.55
2023-02-22T17:31:36.769Z,9.53
2023-02-22T17:34:03.120Z,9.47
2023-02-22T17:36:29.383Z,9.48
2023-02-22T17:38:55.617Z,9.40
2023-02-22T17:41:21.904Z,9.34
2023-02-22T17:43:48.159Z,9.30
2023-02-22T17:46:14.442Z,9.34
2023-02-22T17:48:40.690Z,9.30
2023-02-22T17:51:06.953Z,9.28
2023-02-22T17:53:33.232Z,9.24
2023-02-22T17:55:59.574Z,9.20
2023-02-22T17:58:25.953Z,9.21
2023-02-22T18:00:52.320Z,9.18
2023-02-22T18:03:18.623Z,9.04
2023-02-22T18:05:44.869Z,8.75
2023-02-22T18:08:11.233Z,8.11
2023-02-22T18:10:37.524Z,7.70
2023-02-22T18:13:03.773Z,7.62
2023-02-22T18:15:30.047Z,7.30
2023-02-22T18:17:56.325Z,7.45
2023-02-22T18:20:22.599Z,7.53
2023-02-22T18:22:48.949Z,7.65
2023-02-22T18:25:15.232Z,7.75
2023-02-22T18:27:41.637Z,7.81
2023-02-22T18:30:07.937Z,7.87
2023-02-22T18:32:34.319Z,8.00
2023-02-22T18:35:00.571Z,8.04
2023-02-22T18:37:26.847Z,8.12
2023-02-22T18:39:53.180Z,8.19
2023-02-22T18:42:19.485Z,8.24
2023-02-22T18:44:45.744Z,8.31
2023-02-22T18:47:11.972Z,8.37
2023-02-22T18:49:38.286Z,8.37
2023-02-22T18:52:04.593Z,8.37
2023-02-22T18:54:30.880Z,8.37
2023-02-22T18:56:57.136Z,8.29
2023-02-22T18:59:23.454Z,8.28
2023-02-22T19:01:49.706Z,8.30
2023-02-22T19:04:16.039Z,8.32
2023-02-22T19:06:42.339Z,8.33
2023-02-22T19:09:08.717Z,8.29
2023-02-22T19:11:35.006Z,8.27
2023-02-22T19:14:01.287Z,8.31
2023-02-22T19:16:27.584Z,8.27
2023-02-22T19:18:53.890Z,8.27
2023-02-22T19:21:20.406Z,8.28
2023-02-22T19:23:47.244Z,8.28
2023-02-22T19:26:13.535Z,8.27
2023-02-22T19:28:39.809Z,8.28
2023-02-22T19:31:06.169Z,8.28
2023-02-22T19:33:32.468Z,8.30
2023-02-22T19:35:58.721Z,8.33
2023-02-22T19:38:24.971Z,8.31
2023-02-22T19:40:51.254Z,8.30
2023-02-22T19:43:17.532Z,8.31
2023-02-22T19:45:43.810Z,8.37
2023-02-22T19:48:10.080Z,8.41
2023-02-22T19:50:36.387Z,8.37
2023-02-22T19:53:02.648Z,8.30
2023-02-22T19:55:28.910Z,8.30
2023-02-22T19:57:55.212Z,8.32
2023-02-22T20:00:21.515Z,8.25
2023-02-22T20:02:47.812Z,8.28
2023-02-22T20:05:14.109Z,8.29
2023-02-22T20:07:40.433Z,8.29
2023-02-22T20:10:06.707Z,8.23
2023-02-22T20:12:32.960Z,8.20
2023-02-22T20:14:59.205Z,8.21
2023-02-22T20:17:25.476Z,8.20
2023-02-22T20:19:51.719Z,8.15
2023-02-22T20:22:17.961Z,8.16
2023-02-22T20:24:44.196Z,8.24
2023-02-22T20:27:10.467Z,8.31
2023-02-22T20:29:36.732Z,8.32
2023-02-22T20:32:03.140Z,8.30
2023-02-22T20:34:29.521Z,8.28
2023-02-22T20:36:55.772Z,8.26
2023-02-22T20:39:22.046Z,8.28
2023-02-22T20:41:48.326Z,8.26
2023-02-22T20:44:14.625Z,8.26
2023-02-22T20:46:40.889Z,8.24
2023-02-22T20:49:07.172Z,8.28
2023-02-22T20:51:33.491Z,8.28
2023-02-22T20:53:59.834Z,8.24
2023-02-22T20:56:26.109Z,8.24
2023-02-22T20:58:52.395Z,8.21
2023-02-22T21:01:19.152Z,8.23
2023-02-22T21:03:45.633Z,8.24
2023-02-22T21:06:11.943Z,8.28
2023-02-22T21:08:38.941Z,8.26
2023-02-22T21:11:05.238Z,8.29
2023-02-22T21:13:31.508Z,8.21
2023-02-22T21:15:57.801Z,8.22
2023-02-22T21:18:25.091Z,8.26
2023-02-22T21:20:51.481Z,8.28
2023-02-22T21:23:17.815Z,8.32
2023-02-22T21:25:44.099Z,8.31
2023-02-22T21:28:10.372Z,8.27
2023-02-22T21:30:36.701Z,8.25
2023-02-22T21:33:02.974Z,8.24
2023-02-22T21:35:29.225Z,8.21
2023-02-22T21:37:55.496Z,8.26
2023-02-22T21:40:21.848Z,8.29
2023-02-22T21:42:48.100Z,8.38
2023-02-22T21:45:14.379Z,8.45
2023-02-22T21:47:40.710Z,8.49
2023-02-22T21:50:06.982Z,8.50
2023-02-22T21:52:33.252Z,8.48
2023-02-22T21:54:59.489Z,8.45
2023-02-22T21:57:25.830Z,8.47
2023-02-22T21:59:52.111Z,8.46
2023-02-22T22:02:20.105Z,8.50
2023-02-22T22:04:47.360Z,8.50
2023-02-22T22:07:13.604Z,8.54
2023-02-22T22:09:39.891Z,8.54
2023-02-22T22:12:06.163Z,8.58
2023-02-22T22:14:32.410Z,8.55
2023-02-22T22:16:58.753Z,8.55
2023-02-22T22:19:25.020Z,8.54
2023-02-22T22:21:51.282Z,8.52
2023-02-22T22:24:17.557Z,8.54
2023-02-22T22:26:43.885Z,8.53
2023-02-22T22:29:10.236Z,8.51
2023-02-22T22:31:36.563Z,8.52
2023-02-22T22:34:02.889Z,8.48
2023-02-22T22:36:29.178Z,8.45
2023-02-22T22:38:55.460Z,8.39
2023-02-22T22:41:21.908Z,8.39
2023-02-22T22:43:48.217Z,8.36
2023-02-22T22:46:14.623Z,8.41
2023-02-22T22:48:40.973Z,8.38
2023-02-22T22:51:07.225Z,8.38
2023-02-22T22:53:33.583Z,8.36
2023-02-22T22:55:59.896Z,8.27
2023-02-22T22:58:26.267Z,8.28
2023-02-22T23:00:52.513Z,8.20
2023-02-22T23:03:18.867Z,8.19
2023-02-22T23:05:45.201Z,8.17
2023-02-22T23:08:11.473Z,8.09
2023-02-22T23:10:37.775Z,8.12
2023-02-22T23:13:04.024Z,8.15
2023-02-22T23:15:30.319Z,8.20
2023-02-22T23:17:56.602Z,8.23
2023-02-22T23:20:22.867Z,8.12
2023-02-22T23:22:49.281Z,8.13
2023-02-22T23:25:15.676Z,8.17
2023-02-22T23:27:41.936Z,8.21
2023-02-22T23:30:08.201Z,8.26
2023-02-22T23:32:34.455Z,8.25
2023-02-22T23:35:00.731Z,8.18
2023-02-22T23:37:27.025Z,8.13
2023-02-22T23:39:53.287Z,8.07
2023-02-22T23:42:19.541Z,8.11
2023-02-22T23:44:45.775Z,8.06
2023-02-22T23:47:12.035Z,8.08
2023-02-22T23:49:38.482Z,8.10
2023-02-22T23:52:04.859Z,8.13
2023-02-22T23:54:31.163Z,8.03
2023-02-22T23:56:57.456Z,7.42
2023-02-22T23:59:23.717Z,7.27
